sensor_id;sensor_type;location;lat;lon;timestamp;temperature;humidity
35804;DHT22;21924;51.934;7.414;2024-02-21T00:01:42;8.20;99.90
35804;DHT22;21924;51.934;7.414;2024-02-21T00:04:26;8.20;99.90
35804;DHT22;21924;51.934;7.414;2024-02-21T00:07:11;8.20;99.90
35804;DHT22;21924;51.934;7.414;2024-02-21T00:09:55;8.20;99.90
35804;DHT22;21924;51.934;7.414;2024-02-21T00:12:39;8.20;99.90
35804;DHT22;21924;51.934;7.414;2024-02-21T00:15:23;8.20;99.90
35804;DHT22;21924;51.934;7.414;2024-02-21T00:18:08;8.20;99.90
35804;DHT22;21924;51.934;7.414;2024-02-21T00:20:52;8.20;99.90
35804;DHT22;21924;51.934;7.414;2024-02-21T00:23:36;8.20;99.90
35804;DHT22;21924;51.934;7.414;2024-02-21T00:26:20;8.20;99.90
35804;DHT22;21924;51.934;7.414;2024-02-21T00:29:05;8.30;99.90
35804;DHT22;21924;51.934;7.414;2024-02-21T00:31:49;8.20;99.90
35804;DHT22;21924;51.934;7.414;2024-02-21T00:34:34;8.20;99.90
35804;DHT22;21924;51.934;7.414;2024-02-21T00:37:19;8.20;99.90
35804;DHT22;21924;51.934;7.414;2024-02-21T00:40:04;8.20;99.90
35804;DHT22;21924;51.934;7.414;2024-02-21T00:42:49;8.20;99.90
35804;DHT22;21924;51.934;7.414;2024-02-21T00:45:33;8.20;99.90
35804;DHT22;21924;51.934;7.414;2024-02-21T00:48:18;8.20;99.90
35804;DHT22;21924;51.934;7.414;2024-02-21T00:51:02;8.20;99.90
35804;DHT22;21924;51.934;7.414;2024-02-21T00:53:47;8.20;99.90
35804;DHT22;21924;51.934;7.414;2024-02-21T00:56:31;8.20;99.90
35804;DHT22;21924;51.934;7.414;2024-02-21T00:59:16;8.20;99.90
35804;DHT22;21924;51.934;7.414;2024-02-21T01:02:00;8.30;99.90
35804;DHT22;21924;51.934;7.414;2024-02-21T01:04:44;8.30;99.90
35804;DHT22;21924;51.934;7.414;2024-02-21T01:07:29;8.30;99.90
35804;DHT22;21924;51.934;7.414;2024-02-21T01:10:13;8.30;99.90
35804;DHT22;21924;51.934;7.414;2024-02-21T01:12:57;8.30;99.90
35804;DHT22;21924;51.934;7.414;2024-02-21T01:15:41;8.20;99.90
35804;DHT22;21924;51.934;7.414;2024-02-21T01:18:26;8.30;99.90
35804;DHT22;21924;51.934;7.414;2024-02-21T01:21:10;8.30;99.90
35804;DHT22;21924;51.934;7.414;2024-02-21T01:23:54;8.30;99.90
35804;DHT22;21924;51.934;7.414;2024-02-21T01:26:39;8.30;99.90
35804;DHT22;21924;51.934;7.414;2024-02-21T01:29:23;8.30;99.90
35804;DHT22;21924;51.934;7.414;2024-02-21T01:32:07;8.30;99.90
35804;DHT22;21924;51.934;7.414;2024-02-21T01:34:51;8.30;99.90
35804;DHT22;21924;51.934;7.414;2024-02-21T01:37:36;8.30;99.90
35804;DHT22;21924;51.934;7.414;2024-02-21T01:40:20;8.30;99.90
35804;DHT22;21924;51.934;7.414;2024-02-21T01:43:15;8.30;99.90
35804;DHT22;21924;51.934;7.414;2024-02-21T01:46:01;8.20;99.90
35804;DHT22;21924;51.934;7.414;2024-02-21T01:48:46;8.30;99.90
35804;DHT22;21924;51.934;7.414;2024-02-21T01:51:30;8.30;99.90
35804;DHT22;21924;51.934;7.414;2024-02-21T01:54:16;8.20;99.90
35804;DHT22;21924;51.934;7.414;2024-02-21T01:57:01;8.30;99.90
35804;DHT22;21924;51.934;7.414;2024-02-21T01:59:45;8.20;99.90
35804;DHT22;21924;51.934;7.414;2024-02-21T02:02:30;8.20;99.90
35804;DHT22;21924;51.934;7.414;2024-02-21T02:05:16;8.20;99.90
35804;DHT22;21924;51.934;7.414;2024-02-21T02:08:02;8.30;99.90
35804;DHT22;21924;51.934;7.414;2024-02-21T02:10:47;8.30;99.90
35804;DHT22;21924;51.934;7.414;2024-02-21T02:13:31;8.30;99.90
35804;DHT22;21924;51.934;7.414;2024-02-21T02:16:15;8.30;99.90
35804;DHT22;21924;51.934;7.414;2024-02-21T02:19:00;8.30;99.90
35804;DHT22;21924;51.934;7.414;2024-02-21T02:21:50;8.30;99.90
35804;DHT22;21924;51.934;7.414;2024-02-21T02:24:40;8.30;99.90
35804;DHT22;21924;51.934;7.414;2024-02-21T02:27:24;8.30;99.90
35804;DHT22;21924;51.934;7.414;2024-02-21T02:30:09;8.30;99.90
35804;DHT22;21924;51.934;7.414;2024-02-21T02:32:54;8.30;99.90
35804;DHT22;21924;51.934;7.414;2024-02-21T02:35:38;8.30;99.90
35804;DHT22;21924;51.934;7.414;2024-02-21T02:38:22;8.30;99.90
35804;DHT22;21924;51.934;7.414;2024-02-21T02:41:07;8.30;99.90
35804;DHT22;21924;51.934;7.414;2024-02-21T02:43:51;8.30;99.90
35804;DHT22;21924;51.934;7.414;2024-02-21T02:46:35;8.30;99.90
35804;DHT22;21924;51.934;7.414;2024-02-21T02:49:38;8.30;99.90
35804;DHT22;21924;51.934;7.414;2024-02-21T02:52:38;8.30;99.90
35804;DHT22;21924;51.934;7.414;2024-02-21T02:55:38;8.30;99.90
35804;DHT22;21924;51.934;7.414;2024-02-21T02:58:37;8.30;99.90
35804;DHT22;21924;51.934;7.414;2024-02-21T03:01:40;8.30;99.90
35804;DHT22;21924;51.934;7.414;2024-02-21T03:04:24;8.30;99.90
35804;DHT22;21924;51.934;7.414;2024-02-21T03:07:08;8.20;99.90
35804;DHT22;21924;51.934;7.414;2024-02-21T03:09:52;8.30;99.90
35804;DHT22;21924;51.934;7.414;2024-02-21T03:12:37;8.30;99.90
35804;DHT22;21924;51.934;7.414;2024-02-21T03:15:21;8.30;99.90
35804;DHT22;21924;51.934;7.414;2024-02-21T03:18:06;8.30;99.90
35804;DHT22;21924;51.934;7.414;2024-02-21T03:20:50;8.30;99.90
35804;DHT22;21924;51.934;7.414;2024-02-21T03:23:34;8.30;99.90
35804;DHT22;21924;51.934;7.414;2024-02-21T03:26:19;8.30;99.90
35804;DHT22;21924;51.934;7.414;2024-02-21T03:29:06;8.30;99.90
35804;DHT22;21924;51.934;7.414;2024-02-21T03:31:51;8.40;99.90
35804;DHT22;21924;51.934;7.414;2024-02-21T03:34:35;8.40;99.90
35804;DHT22;21924;51.934;7.414;2024-02-21T03:37:20;8.30;99.90
35804;DHT22;21924;51.934;7.414;2024-02-21T03:40:09;8.30;99.90
35804;DHT22;21924;51.934;7.414;2024-02-21T03:42:54;8.30;99.90
35804;DHT22;21924;51.934;7.414;2024-02-21T03:45:38;8.30;99.90
35804;DHT22;21924;51.934;7.414;2024-02-21T03:48:23;8.40;99.90
35804;DHT22;21924;51.934;7.414;2024-02-21T03:51:07;8.30;99.90
35804;DHT22;21924;51.934;7.414;2024-02-21T03:53:52;8.30;99.90
35804;DHT22;21924;51.934;7.414;2024-02-21T03:56:39;8.30;99.90
35804;DHT22;21924;51.934;7.414;2024-02-21T03:59:26;8.30;99.90
35804;DHT22;21924;51.934;7.414;2024-02-21T04:02:10;8.30;99.90
35804;DHT22;21924;51.934;7.414;2024-02-21T04:04:54;8.30;99.90
35804;DHT22;21924;51.934;7.414;2024-02-21T04:07:39;8.40;99.90
35804;DHT22;21924;51.934;7.414;2024-02-21T04:10:23;8.30;99.90
35804;DHT22;21924;51.934;7.414;2024-02-21T04:13:08;8.30;99.90
35804;DHT22;21924;51.934;7.414;2024-02-21T04:15:52;8.20;99.90
35804;DHT22;21924;51.934;7.414;2024-02-21T04:18:36;8.30;99.90
35804;DHT22;21924;51.934;7.414;2024-02-21T04:21:20;8.30;99.90
35804;DHT22;21924;51.934;7.414;2024-02-21T04:24:05;8.30;99.90
35804;DHT22;21924;51.934;7.414;2024-02-21T04:26:50;8.30;99.90
35804;DHT22;21924;51.934;7.414;2024-02-21T04:29:35;8.30;99.90
35804;DHT22;21924;51.934;7.414;2024-02-21T04:32:19;8.30;99.90
35804;DHT22;21924;51.934;7.414;2024-02-21T04:35:03;8.30;99.90
35804;DHT22;21924;51.934;7.414;2024-02-21T04:37:49;8.30;99.90
35804;DHT22;21924;51.934;7.414;2024-02-21T04:40:33;8.30;99.90
35804;DHT22;21924;51.934;7.414;2024-02-21T04:43:18;8.30;99.90
35804;DHT22;21924;51.934;7.414;2024-02-21T04:46:02;8.30;99.90
35804;DHT22;21924;51.934;7.414;2024-02-21T04:48:46;8.40;99.90
35804;DHT22;21924;51.934;7.414;2024-02-21T04:51:30;8.40;99.90
35804;DHT22;21924;51.934;7.414;2024-02-21T04:54:15;8.30;99.90
35804;DHT22;21924;51.934;7.414;2024-02-21T04:56:59;8.30;99.90
35804;DHT22;21924;51.934;7.414;2024-02-21T04:59:46;8.30;99.90
35804;DHT22;21924;51.934;7.414;2024-02-21T05:02:34;8.30;99.90
35804;DHT22;21924;51.934;7.414;2024-02-21T05:05:18;8.30;99.90
35804;DHT22;21924;51.934;7.414;2024-02-21T05:08:03;8.20;99.90
35804;DHT22;21924;51.934;7.414;2024-02-21T05:10:47;8.30;99.90
35804;DHT22;21924;51.934;7.414;2024-02-21T05:13:31;8.30;99.90
35804;DHT22;21924;51.934;7.414;2024-02-21T05:16:16;8.30;99.90
35804;DHT22;21924;51.934;7.414;2024-02-21T05:19:00;8.30;99.90
35804;DHT22;21924;51.934;7.414;2024-02-21T05:21:45;8.30;99.90
35804;DHT22;21924;51.934;7.414;2024-02-21T05:24:41;8.20;99.90
35804;DHT22;21924;51.934;7.414;2024-02-21T05:27:41;8.20;99.90
35804;DHT22;21924;51.934;7.414;2024-02-21T05:30:40;8.20;99.90
35804;DHT22;21924;51.934;7.414;2024-02-21T05:33:27;8.20;99.90
35804;DHT22;21924;51.934;7.414;2024-02-21T05:36:11;8.10;99.90
35804;DHT22;21924;51.934;7.414;2024-02-21T05:38:56;8.20;99.90
35804;DHT22;21924;51.934;7.414;2024-02-21T05:41:41;8.20;99.90
35804;DHT22;21924;51.934;7.414;2024-02-21T05:44:26;8.10;99.90
35804;DHT22;21924;51.934;7.414;2024-02-21T05:47:10;8.20;99.90
35804;DHT22;21924;51.934;7.414;2024-02-21T05:49:56;8.20;99.90
35804;DHT22;21924;51.934;7.414;2024-02-21T05:52:40;8.20;99.90
35804;DHT22;21924;51.934;7.414;2024-02-21T05:55:24;8.10;99.90
35804;DHT22;21924;51.934;7.414;2024-02-21T05:58:09;8.20;99.90
35804;DHT22;21924;51.934;7.414;2024-02-21T06:00:57;8.10;99.90
35804;DHT22;21924;51.934;7.414;2024-02-21T06:03:41;8.20;99.90
35804;DHT22;21924;51.934;7.414;2024-02-21T06:06:26;8.20;99.90
35804;DHT22;21924;51.934;7.414;2024-02-21T06:09:10;8.20;99.90
35804;DHT22;21924;51.934;7.414;2024-02-21T06:11:54;8.10;99.90
35804;DHT22;21924;51.934;7.414;2024-02-21T06:14:39;8.20;99.90
35804;DHT22;21924;51.934;7.414;2024-02-21T06:17:23;8.20;99.90
35804;DHT22;21924;51.934;7.414;2024-02-21T06:20:08;8.20;99.90
35804;DHT22;21924;51.934;7.414;2024-02-21T06:22:52;8.20;99.90
35804;DHT22;21924;51.934;7.414;2024-02-21T06:25:37;8.20;99.90
35804;DHT22;21924;51.934;7.414;2024-02-21T06:28:21;8.20;99.90
35804;DHT22;21924;51.934;7.414;2024-02-21T06:31:06;8.20;99.90
35804;DHT22;21924;51.934;7.414;2024-02-21T06:33:50;8.20;99.90
35804;DHT22;21924;51.934;7.414;2024-02-21T06:36:35;8.20;99.90
35804;DHT22;21924;51.934;7.414;2024-02-21T06:39:19;8.20;99.90
35804;DHT22;21924;51.934;7.414;2024-02-21T06:42:04;8.20;99.90
35804;DHT22;21924;51.934;7.414;2024-02-21T06:44:48;8.20;99.90
35804;DHT22;21924;51.934;7.414;2024-02-21T06:47:32;8.20;99.90
35804;DHT22;21924;51.934;7.414;2024-02-21T06:50:16;8.20;99.90
35804;DHT22;21924;51.934;7.414;2024-02-21T06:53:00;8.20;99.90
35804;DHT22;21924;51.934;7.414;2024-02-21T06:55:45;8.20;99.90
35804;DHT22;21924;51.934;7.414;2024-02-21T06:58:29;8.20;99.90
35804;DHT22;21924;51.934;7.414;2024-02-21T07:01:13;8.30;99.90
35804;DHT22;21924;51.934;7.414;2024-02-21T07:03:58;8.30;99.90
35804;DHT22;21924;51.934;7.414;2024-02-21T07:06:42;8.30;99.90
35804;DHT22;21924;51.934;7.414;2024-02-21T07:09:26;8.30;99.90
35804;DHT22;21924;51.934;7.414;2024-02-21T07:12:14;8.30;99.90
35804;DHT22;21924;51.934;7.414;2024-02-21T07:14:58;8.30;99.90
35804;DHT22;21924;51.934;7.414;2024-02-21T07:17:45;8.30;99.90
35804;DHT22;21924;51.934;7.414;2024-02-21T07:20:29;8.40;99.90
35804;DHT22;21924;51.934;7.414;2024-02-21T07:23:13;8.40;99.90
35804;DHT22;21924;51.934;7.414;2024-02-21T07:25:58;8.40;99.90
35804;DHT22;21924;51.934;7.414;2024-02-21T07:28:42;8.50;99.90
35804;DHT22;21924;51.934;7.414;2024-02-21T07:31:26;8.40;99.90
35804;DHT22;21924;51.934;7.414;2024-02-21T07:34:11;8.40;99.90
35804;DHT22;21924;51.934;7.414;2024-02-21T07:36:55;8.40;99.90
35804;DHT22;21924;51.934;7.414;2024-02-21T07:39:41;8.40;99.90
35804;DHT22;21924;51.934;7.414;2024-02-21T07:42:25;8.50;99.90
35804;DHT22;21924;51.934;7.414;2024-02-21T07:45:10;8.50;99.90
35804;DHT22;21924;51.934;7.414;2024-02-21T07:47:54;8.60;99.90
35804;DHT22;21924;51.934;7.414;2024-02-21T07:50:38;8.60;99.90
35804;DHT22;21924;51.934;7.414;2024-02-21T07:53:23;8.60;99.90
35804;DHT22;21924;51.934;7.414;2024-02-21T07:56:07;8.60;99.90
35804;DHT22;21924;51.934;7.414;2024-02-21T07:58:52;8.70;99.90
35804;DHT22;21924;51.934;7.414;2024-02-21T08:01:36;8.70;99.90
35804;DHT22;21924;51.934;7.414;2024-02-21T08:04:21;8.80;99.90
35804;DHT22;21924;51.934;7.414;2024-02-21T08:07:06;8.80;99.90
35804;DHT22;21924;51.934;7.414;2024-02-21T08:09:50;8.90;99.90
35804;DHT22;21924;51.934;7.414;2024-02-21T08:12:35;8.90;99.90
35804;DHT22;21924;51.934;7.414;2024-02-21T08:15:19;8.90;99.90
35804;DHT22;21924;51.934;7.414;2024-02-21T08:18:08;8.90;99.90
35804;DHT22;21924;51.934;7.414;2024-02-21T08:20:52;9.00;99.90
35804;DHT22;21924;51.934;7.414;2024-02-21T08:23:40;8.90;99.90
35804;DHT22;21924;51.934;7.414;2024-02-21T08:26:25;9.00;99.90
35804;DHT22;21924;51.934;7.414;2024-02-21T08:29:12;9.00;99.90
35804;DHT22;21924;51.934;7.414;2024-02-21T08:31:56;9.10;99.90
35804;DHT22;21924;51.934;7.414;2024-02-21T08:34:41;9.10;99.90
35804;DHT22;21924;51.934;7.414;2024-02-21T08:37:27;9.20;99.90
35804;DHT22;21924;51.934;7.414;2024-02-21T08:40:15;9.20;99.90
35804;DHT22;21924;51.934;7.414;2024-02-21T08:43:01;9.30;99.90
35804;DHT22;21924;51.934;7.414;2024-02-21T08:45:52;9.30;99.90
35804;DHT22;21924;51.934;7.414;2024-02-21T08:48:36;9.30;99.90
35804;DHT22;21924;51.934;7.414;2024-02-21T08:51:20;9.40;99.90
35804;DHT22;21924;51.934;7.414;2024-02-21T08:54:05;9.50;99.90
35804;DHT22;21924;51.934;7.414;2024-02-21T08:56:55;9.60;99.90
35804;DHT22;21924;51.934;7.414;2024-02-21T08:59:43;9.60;99.90
35804;DHT22;21924;51.934;7.414;2024-02-21T09:02:27;9.60;99.90
35804;DHT22;21924;51.934;7.414;2024-02-21T09:05:11;9.60;99.90
35804;DHT22;21924;51.934;7.414;2024-02-21T09:07:55;9.60;99.90
35804;DHT22;21924;51.934;7.414;2024-02-21T09:10:40;9.50;99.90
35804;DHT22;21924;51.934;7.414;2024-02-21T09:13:24;9.60;99.90
35804;DHT22;21924;51.934;7.414;2024-02-21T09:16:09;9.60;99.90
35804;DHT22;21924;51.934;7.414;2024-02-21T09:18:53;9.70;99.90
35804;DHT22;21924;51.934;7.414;2024-02-21T09:21:38;9.70;99.90
35804;DHT22;21924;51.934;7.414;2024-02-21T09:24:22;9.70;99.90
35804;DHT22;21924;51.934;7.414;2024-02-21T09:27:06;9.70;99.90
35804;DHT22;21924;51.934;7.414;2024-02-21T09:29:50;9.80;99.90
35804;DHT22;21924;51.934;7.414;2024-02-21T09:32:35;9.80;99.90
35804;DHT22;21924;51.934;7.414;2024-02-21T09:35:19;9.80;99.90
35804;DHT22;21924;51.934;7.414;2024-02-21T09:38:06;9.80;99.90
35804;DHT22;21924;51.934;7.414;2024-02-21T09:40:59;9.80;99.90
35804;DHT22;21924;51.934;7.414;2024-02-21T09:43:50;9.80;99.90
35804;DHT22;21924;51.934;7.414;2024-02-21T09:49:31;9.90;99.90
35804;DHT22;21924;51.934;7.414;2024-02-21T09:52:22;9.90;99.90
35804;DHT22;21924;51.934;7.414;2024-02-21T09:55:07;9.90;99.90
35804;DHT22;21924;51.934;7.414;2024-02-21T09:57:54;9.80;99.90
35804;DHT22;21924;51.934;7.414;2024-02-21T10:00:40;9.80;99.90
35804;DHT22;21924;51.934;7.414;2024-02-21T10:03:24;9.80;99.90
35804;DHT22;21924;51.934;7.414;2024-02-21T10:06:15;9.70;99.90
35804;DHT22;21924;51.934;7.414;2024-02-21T10:08:59;9.60;99.90
35804;DHT22;21924;51.934;7.414;2024-02-21T10:11:46;9.70;99.90
35804;DHT22;21924;51.934;7.414;2024-02-21T10:14:30;9.60;99.90
35804;DHT22;21924;51.934;7.414;2024-02-21T10:17:18;9.70;99.90
35804;DHT22;21924;51.934;7.414;2024-02-21T10:20:10;9.70;99.90
35804;DHT22;21924;51.934;7.414;2024-02-21T10:23:03;9.80;99.90
35804;DHT22;21924;51.934;7.414;2024-02-21T10:25:51;9.90;99.90
35804;DHT22;21924;51.934;7.414;2024-02-21T10:28:39;9.90;99.90
35804;DHT22;21924;51.934;7.414;2024-02-21T10:31:28;9.90;99.90
35804;DHT22;21924;51.934;7.414;2024-02-21T10:34:16;9.90;99.90
35804;DHT22;21924;51.934;7.414;2024-02-21T10:37:03;9.90;99.90
35804;DHT22;21924;51.934;7.414;2024-02-21T10:39:47;10.00;99.90
35804;DHT22;21924;51.934;7.414;2024-02-21T10:42:32;9.90;99.90
35804;DHT22;21924;51.934;7.414;2024-02-21T10:45:18;10.00;99.90
35804;DHT22;21924;51.934;7.414;2024-02-21T10:48:11;10.10;99.90
35804;DHT22;21924;51.934;7.414;2024-02-21T10:56:58;10.20;99.90
35804;DHT22;21924;51.934;7.414;2024-02-21T10:59:45;10.20;99.90
35804;DHT22;21924;51.934;7.414;2024-02-21T11:02:29;10.20;99.90
35804;DHT22;21924;51.934;7.414;2024-02-21T11:05:15;10.20;99.90
35804;DHT22;21924;51.934;7.414;2024-02-21T11:08:00;10.20;99.90
35804;DHT22;21924;51.934;7.414;2024-02-21T11:10:46;10.30;99.90
35804;DHT22;21924;51.934;7.414;2024-02-21T11:13:37;10.30;99.90
35804;DHT22;21924;51.934;7.414;2024-02-21T11:16:22;10.10;99.90
35804;DHT22;21924;51.934;7.414;2024-02-21T11:21:56;9.80;99.90
35804;DHT22;21924;51.934;7.414;2024-02-21T11:24:41;9.80;99.90
35804;DHT22;21924;51.934;7.414;2024-02-21T11:27:27;9.90;99.90
35804;DHT22;21924;51.934;7.414;2024-02-21T11:30:12;9.80;99.90
35804;DHT22;21924;51.934;7.414;2024-02-21T11:33:06;9.90;99.90
35804;DHT22;21924;51.934;7.414;2024-02-21T11:35:51;9.80;99.90
35804;DHT22;21924;51.934;7.414;2024-02-21T11:38:39;9.90;99.90
35804;DHT22;21924;51.934;7.414;2024-02-21T11:41:24;9.80;99.90
35804;DHT22;21924;51.934;7.414;2024-02-21T11:44:08;9.80;99.90
35804;DHT22;21924;51.934;7.414;2024-02-21T11:46:53;9.80;99.90
35804;DHT22;21924;51.934;7.414;2024-02-21T11:49:38;9.80;99.90
35804;DHT22;21924;51.934;7.414;2024-02-21T11:52:26;9.80;99.90
35804;DHT22;21924;51.934;7.414;2024-02-21T11:55:11;9.90;99.90
35804;DHT22;21924;51.934;7.414;2024-02-21T11:57:55;9.90;99.90
35804;DHT22;21924;51.934;7.414;2024-02-21T12:00:40;9.90;99.90
35804;DHT22;21924;51.934;7.414;2024-02-21T12:03:24;9.90;99.90
35804;DHT22;21924;51.934;7.414;2024-02-21T12:06:09;9.90;99.90
35804;DHT22;21924;51.934;7.414;2024-02-21T12:08:58;9.70;99.90
35804;DHT22;21924;51.934;7.414;2024-02-21T12:11:43;9.70;99.90
35804;DHT22;21924;51.934;7.414;2024-02-21T12:14:29;9.70;99.90
35804;DHT22;21924;51.934;7.414;2024-02-21T12:17:14;9.70;99.90
35804;DHT22;21924;51.934;7.414;2024-02-21T12:19:58;9.70;99.90
35804;DHT22;21924;51.934;7.414;2024-02-21T12:22:43;9.70;99.90
35804;DHT22;21924;51.934;7.414;2024-02-21T12:25:28;9.80;99.90
35804;DHT22;21924;51.934;7.414;2024-02-21T12:28:15;9.80;99.90
35804;DHT22;21924;51.934;7.414;2024-02-21T12:31:01;9.90;99.90
35804;DHT22;21924;51.934;7.414;2024-02-21T12:33:48;10.10;99.90
35804;DHT22;21924;51.934;7.414;2024-02-21T12:36:33;10.10;99.90
35804;DHT22;21924;51.934;7.414;2024-02-21T12:39:17;10.30;99.90
35804;DHT22;21924;51.934;7.414;2024-02-21T12:42:01;10.30;99.90
35804;DHT22;21924;51.934;7.414;2024-02-21T12:44:46;10.30;99.90
35804;DHT22;21924;51.934;7.414;2024-02-21T12:47:30;10.30;99.90
35804;DHT22;21924;51.934;7.414;2024-02-21T12:50:15;10.40;99.90
35804;DHT22;21924;51.934;7.414;2024-02-21T12:52:59;10.30;99.90
35804;DHT22;21924;51.934;7.414;2024-02-21T12:55:43;10.30;99.90
35804;DHT22;21924;51.934;7.414;2024-02-21T12:58:28;10.30;99.90
35804;DHT22;21924;51.934;7.414;2024-02-21T13:01:15;10.30;99.90
35804;DHT22;21924;51.934;7.414;2024-02-21T13:03:59;10.30;99.90
35804;DHT22;21924;51.934;7.414;2024-02-21T13:06:45;10.30;99.90
35804;DHT22;21924;51.934;7.414;2024-02-21T13:09:29;10.40;99.90
35804;DHT22;21924;51.934;7.414;2024-02-21T13:12:13;10.50;99.90
35804;DHT22;21924;51.934;7.414;2024-02-21T13:14:58;10.50;99.90
35804;DHT22;21924;51.934;7.414;2024-02-21T13:17:44;10.60;99.90
35804;DHT22;21924;51.934;7.414;2024-02-21T13:20:28;10.60;99.90
35804;DHT22;21924;51.934;7.414;2024-02-21T13:23:13;10.60;99.90
35804;DHT22;21924;51.934;7.414;2024-02-21T13:25:57;10.60;99.90
35804;DHT22;21924;51.934;7.414;2024-02-21T13:28:41;10.70;99.90
35804;DHT22;21924;51.934;7.414;2024-02-21T13:31:26;10.80;99.90
35804;DHT22;21924;51.934;7.414;2024-02-21T13:34:10;10.70;99.90
35804;DHT22;21924;51.934;7.414;2024-02-21T13:36:54;10.70;99.90
35804;DHT22;21924;51.934;7.414;2024-02-21T13:39:41;10.70;99.90
35804;DHT22;21924;51.934;7.414;2024-02-21T13:42:26;10.70;99.90
35804;DHT22;21924;51.934;7.414;2024-02-21T13:45:11;10.90;99.90
35804;DHT22;21924;51.934;7.414;2024-02-21T13:47:57;10.90;99.90
35804;DHT22;21924;51.934;7.414;2024-02-21T13:50:41;10.90;99.90
35804;DHT22;21924;51.934;7.414;2024-02-21T13:53:28;10.80;99.90
35804;DHT22;21924;51.934;7.414;2024-02-21T13:56:12;10.90;99.90
35804;DHT22;21924;51.934;7.414;2024-02-21T13:58:58;10.70;99.90
35804;DHT22;21924;51.934;7.414;2024-02-21T14:01:47;10.60;99.90
35804;DHT22;21924;51.934;7.414;2024-02-21T14:04:31;10.70;99.90
35804;DHT22;21924;51.934;7.414;2024-02-21T14:07:15;10.70;99.90
35804;DHT22;21924;51.934;7.414;2024-02-21T14:10:01;10.60;99.90
35804;DHT22;21924;51.934;7.414;2024-02-21T14:12:45;10.60;99.90
35804;DHT22;21924;51.934;7.414;2024-02-21T14:15:29;10.60;99.90
35804;DHT22;21924;51.934;7.414;2024-02-21T14:18:14;10.50;99.90
35804;DHT22;21924;51.934;7.414;2024-02-21T14:21:00;10.60;99.90
35804;DHT22;21924;51.934;7.414;2024-02-21T14:23:44;10.60;99.90
35804;DHT22;21924;51.934;7.414;2024-02-21T14:26:29;10.60;99.90
35804;DHT22;21924;51.934;7.414;2024-02-21T14:29:15;10.50;99.90
35804;DHT22;21924;51.934;7.414;2024-02-21T14:31:59;10.60;99.90
35804;DHT22;21924;51.934;7.414;2024-02-21T14:34:43;10.60;99.90
35804;DHT22;21924;51.934;7.414;2024-02-21T14:37:28;10.60;99.90
35804;DHT22;21924;51.934;7.414;2024-02-21T14:40:12;10.50;99.90
35804;DHT22;21924;51.934;7.414;2024-02-21T14:42:56;10.50;99.90
35804;DHT22;21924;51.934;7.414;2024-02-21T14:45:41;10.50;99.90
35804;DHT22;21924;51.934;7.414;2024-02-21T14:48:25;10.60;99.90
35804;DHT22;21924;51.934;7.414;2024-02-21T14:51:09;10.50;99.90
35804;DHT22;21924;51.934;7.414;2024-02-21T14:53:54;10.50;99.90
35804;DHT22;21924;51.934;7.414;2024-02-21T15:00:17;10.60;99.90
35804;DHT22;21924;51.934;7.414;2024-02-21T15:07:15;10.40;99.90
35804;DHT22;21924;51.934;7.414;2024-02-21T15:13:40;10.50;99.90
35804;DHT22;21924;51.934;7.414;2024-02-21T15:20:06;10.30;99.90
35804;DHT22;21924;51.934;7.414;2024-02-21T15:23:16;10.30;99.90
35804;DHT22;21924;51.934;7.414;2024-02-21T15:58:07;10.10;99.90
35804;DHT22;21924;51.934;7.414;2024-02-21T16:01:25;10.10;99.90
35804;DHT22;21924;51.934;7.414;2024-02-21T16:08:18;10.10;99.90
35804;DHT22;21924;51.934;7.414;2024-02-21T16:42:35;10.00;99.90
35804;DHT22;21924;51.934;7.414;2024-02-21T16:45:19;9.90;99.90
35804;DHT22;21924;51.934;7.414;2024-02-21T16:48:23;9.90;99.90
35804;DHT22;21924;51.934;7.414;2024-02-21T16:51:10;9.90;99.90
35804;DHT22;21924;51.934;7.414;2024-02-21T16:54:34;9.90;99.90
35804;DHT22;21924;51.934;7.414;2024-02-21T16:57:44;9.90;99.90
35804;DHT22;21924;51.934;7.414;2024-02-21T17:04:18;9.80;99.90
35804;DHT22;21924;51.934;7.414;2024-02-21T17:07:20;9.90;99.90
35804;DHT22;21924;51.934;7.414;2024-02-21T17:10:23;9.80;99.90
35804;DHT22;21924;51.934;7.414;2024-02-21T17:13:19;9.80;99.90
35804;DHT22;21924;51.934;7.414;2024-02-21T17:16:20;9.80;99.90
35804;DHT22;21924;51.934;7.414;2024-02-21T17:19:04;9.80;99.90
35804;DHT22;21924;51.934;7.414;2024-02-21T17:29:20;9.60;99.90
35804;DHT22;21924;51.934;7.414;2024-02-21T17:32:19;9.50;99.90
35804;DHT22;21924;51.934;7.414;2024-02-21T17:35:19;9.40;99.90
35804;DHT22;21924;51.934;7.414;2024-02-21T17:45:31;9.20;99.90
35804;DHT22;21924;51.934;7.414;2024-02-21T17:48:34;9.10;99.90
35804;DHT22;21924;51.934;7.414;2024-02-21T17:55:20;9.10;99.90
35804;DHT22;21924;51.934;7.414;2024-02-21T18:05:27;8.80;99.90
35804;DHT22;21924;51.934;7.414;2024-02-21T18:12:21;8.70;99.90
35804;DHT22;21924;51.934;7.414;2024-02-21T18:15:21;8.70;99.90
35804;DHT22;21924;51.934;7.414;2024-02-21T18:29:22;8.40;99.90
35804;DHT22;21924;51.934;7.414;2024-02-21T18:32:33;8.40;99.90
35804;DHT22;21924;51.934;7.414;2024-02-21T18:35:24;8.30;99.90
35804;DHT22;21924;51.934;7.414;2024-02-21T18:38:09;8.30;99.90
35804;DHT22;21924;51.934;7.414;2024-02-21T18:48:22;8.30;99.90
35804;DHT22;21924;51.934;7.414;2024-02-21T18:55:22;8.30;99.90
35804;DHT22;21924;51.934;7.414;2024-02-21T18:58:17;8.20;99.90
35804;DHT22;21924;51.934;7.414;2024-02-21T19:01:22;8.30;99.90
35804;DHT22;21924;51.934;7.414;2024-02-21T19:04:12;8.20;99.90
35804;DHT22;21924;51.934;7.414;2024-02-21T19:07:05;8.20;99.90
35804;DHT22;21924;51.934;7.414;2024-02-21T19:09:55;8.00;99.90
35804;DHT22;21924;51.934;7.414;2024-02-21T19:13:01;8.00;99.90
35804;DHT22;21924;51.934;7.414;2024-02-21T19:15:51;8.00;99.90
35804;DHT22;21924;51.934;7.414;2024-02-21T19:22:38;7.90;99.90
35804;DHT22;21924;51.934;7.414;2024-02-21T19:26:01;7.90;99.90
35804;DHT22;21924;51.934;7.414;2024-02-21T19:36:41;7.80;99.90
35804;DHT22;21924;51.934;7.414;2024-02-21T20:17:46;7.80;99.90
35804;DHT22;21924;51.934;7.414;2024-02-21T21:05:32;7.80;99.90
35804;DHT22;21924;51.934;7.414;2024-02-21T21:08:46;7.80;99.90
35804;DHT22;21924;51.934;7.414;2024-02-21T21:41:31;7.90;99.90
35804;DHT22;21924;51.934;7.414;2024-02-21T21:44:16;7.80;99.90
35804;DHT22;21924;51.934;7.414;2024-02-21T21:47:00;7.80;99.90
35804;DHT22;21924;51.934;7.414;2024-02-21T21:49:44;7.90;99.90
35804;DHT22;21924;51.934;7.414;2024-02-21T21:52:29;7.90;99.90
35804;DHT22;21924;51.934;7.414;2024-02-21T21:55:45;7.90;99.90
35804;DHT22;21924;51.934;7.414;2024-02-21T21:58:32;7.90;99.90
35804;DHT22;21924;51.934;7.414;2024-02-21T22:01:37;7.90;99.90
35804;DHT22;21924;51.934;7.414;2024-02-21T22:04:28;7.80;99.90
35804;DHT22;21924;51.934;7.414;2024-02-21T22:07:28;7.80;99.90
35804;DHT22;21924;51.934;7.414;2024-02-21T22:10:28;7.80;99.90
35804;DHT22;21924;51.934;7.414;2024-02-21T22:13:28;7.90;99.90
35804;DHT22;21924;51.934;7.414;2024-02-21T22:16:29;7.90;99.90
35804;DHT22;21924;51.934;7.414;2024-02-21T22:19:18;7.80;99.90
35804;DHT22;21924;51.934;7.414;2024-02-21T22:22:28;7.90;99.90
35804;DHT22;21924;51.934;7.414;2024-02-21T22:25:28;7.90;99.90